Supply, North Carolina
Current Conditions -  °F | °C
As of 1:35 PM on Wednesday 26 Nov 2014 (Local Time) from KSUT Reporting Station
Drizzle Drizzle  
Wind Chill: 44°   Ceiling: 1200
Heat Index: 49°   Visibility: 10mi
Dew Point: 47°   Wind: 13mph
Humidity: 92%   Direction: 310°NW
Pressure: 29.92"   Gusts: 21mph
Location:  34.02°N, 78.27°W
Report Text: KSUT 261835Z AUTO 31011G18KT 10SM -DZ BKN012 OVC019 10/08 A2992 RMK AO2 P0001 T00960083
Loading
Personal Weather Stations






























Interactive Weather Map New forecast layout! Learn more

10-Day Weather Forecast

Advertisements
Track Severe Weather on mobile